METAR Data
IDs: Format: Raw Decoded Include TAF

Data at: 0223 UTC 16 Jan 2019

NZAA 160200Z AUTO 23014KT 9999 FEW019/// 22/17 Q1007 NOSIG
NZAA 160130Z AUTO 23015KT 9999 FEW019/// 23/18 Q1007 NOSIG
NZAA 160100Z AUTO 23015KT 9999 FEW020/// 23/18 Q1007 NOSIG
NZAA 160030Z AUTO 23014KT 9999 FEW020/// 22/17 Q1007 NOSIG
NZAA 160000Z AUTO 23013KT 9999 FEW020/// 23/17 Q1007 NOSIG
NZAA 152330Z AUTO 23014KT 9999 FEW023/// 22/16 Q1007 NOSIG

TAF NZAA 152310Z 1600/1700 22015KT 9999 -SHRA SCT020
  FM160800 22005KT 9999 BKN020
  BECMG 1621/1623 22015KT